Time;durP1;ratioP1;P1;durP2;ratioP2;P2;SDS_P1;SDS_P2;PMS_P1;PMS_P2;Temp;Humidity;BMP_temperature;BMP_pressure;BME280_temperature;BME280_humidity;BME280_pressure;Samples;Min_cycle;Max_cycle;Signal;HPM_P1;HPM_P2
2022/03/14 00:01:50;;;;;;;6.95;6.22;;;3.10;64.50;;;;;;5114308;28;20024;-63
2022/03/14 00:04:17;;;;;;;7.72;6.55;;;3.10;64.60;;;;;;5087543;28;20370;-63
2022/03/14 00:06:44;;;;;;;7.00;6.15;;;3.20;64.70;;;;;;5093080;28;20071;-63
2022/03/14 00:09:10;;;;;;;9.15;6.90;;;3.20;64.60;;;;;;5115558;28;20047;-63
2022/03/14 00:11:36;;;;;;;7.35;6.30;;;3.20;65.20;;;;;;5115335;28;20023;-62
2022/03/14 00:14:07;;;;;;;7.97;6.72;;;3.20;64.40;;;;;;5110950;28;20027;-63
2022/03/14 00:16:38;;;;;;;7.43;4.80;;;3.20;64.50;;;;;;5115702;28;20128;-63
2022/03/14 00:19:05;;;;;;;7.95;6.68;;;3.10;64.60;;;;;;5115105;28;20053;-63
2022/03/14 00:21:35;;;;;;;9.27;7.57;;;3.20;65.10;;;;;;5115466;28;20058;-63
2022/03/14 00:24:01;;;;;;;8.35;5.80;;;3.20;65.30;;;;;;5115706;28;20501;-63
2022/03/14 00:26:27;;;;;;;11.70;5.75;;;3.20;65.40;;;;;;5100342;28;20024;-63
2022/03/14 00:28:53;;;;;;;8.48;7.15;;;3.10;65.50;;;;;;5114803;28;20028;-63
2022/03/14 00:31:20;;;;;;;7.70;6.32;;;3.20;65.70;;;;;;5105393;28;20021;-63
2022/03/14 00:33:45;;;;;;;9.65;7.40;;;3.20;65.50;;;;;;5093987;28;20024;-63
2022/03/14 00:36:11;;;;;;;10.02;7.03;;;3.20;65.00;;;;;;5102475;28;20126;-63
2022/03/14 00:38:38;;;;;;;7.97;7.10;;;3.20;64.70;;;;;;5091588;28;20103;-63
2022/03/14 00:41:05;;;;;;;8.05;6.82;;;3.20;64.50;;;;;;5110582;28;20031;-63
2022/03/14 00:43:32;;;;;;;7.85;6.28;;;3.20;64.40;;;;;;5114765;28;20028;-63
2022/03/14 00:45:58;;;;;;;6.93;6.22;;;3.10;64.30;;;;;;5114574;28;20034;-63
2022/03/14 00:48:24;;;;;;;8.05;4.85;;;3.10;64.20;;;;;;5100752;28;20025;-63
2022/03/14 00:50:50;;;;;;;6.65;4.40;;;3.10;64.40;;;;;;5088571;28;20537;-63
2022/03/14 00:53:16;;;;;;;7.25;5.82;;;3.00;64.60;;;;;;5097454;28;20115;-63
2022/03/14 00:55:42;;;;;;;5.53;4.22;;;3.00;64.60;;;;;;5100812;28;20036;-63
2022/03/14 00:58:08;;;;;;;12.20;6.97;;;2.90;64.50;;;;;;5114430;28;20034;-63
2022/03/14 01:00:34;;;;;;;7.78;6.55;;;3.00;64.80;;;;;;5102642;28;20472;-63
2022/03/14 01:03:00;;;;;;;8.65;6.30;;;3.00;64.60;;;;;;5103647;28;20016;-63
2022/03/14 01:05:27;;;;;;;8.95;6.78;;;3.00;64.50;;;;;;5087192;28;20028;-63
2022/03/14 01:07:53;;;;;;;8.70;7.03;;;3.00;64.10;;;;;;5109063;28;20068;-63
2022/03/14 01:10:19;;;;;;;9.60;7.30;;;3.00;64.00;;;;;;5106467;28;20023;-63
2022/03/14 01:12:44;;;;;;;8.57;6.97;;;3.00;63.90;;;;;;5114171;28;20020;-63
2022/03/14 01:15:10;;;;;;;9.32;7.32;;;2.90;63.90;;;;;;5112812;28;20110;-63
2022/03/14 01:17:36;;;;;;;8.55;7.18;;;2.90;63.90;;;;;;5114095;28;20035;-63
2022/03/14 01:20:06;;;;;;;8.63;7.38;;;2.90;63.70;;;;;;5113966;28;20423;-63
2022/03/14 01:22:32;;;;;;;9.07;7.65;;;2.80;63.70;;;;;;5108459;28;20019;-63
2022/03/14 01:24:58;;;;;;;8.73;6.72;;;2.80;63.80;;;;;;5109034;28;20020;-63
2022/03/14 01:27:24;;;;;;;9.20;7.30;;;2.70;63.80;;;;;;5104771;28;20383;-63
2022/03/14 01:29:49;;;;;;;8.15;7.03;;;2.70;64.20;;;;;;5113836;28;20486;-63
2022/03/14 01:32:16;;;;;;;8.68;7.28;;;2.60;64.20;;;;;;5113820;28;20391;-63
2022/03/14 01:34:41;;;;;;;8.57;6.93;;;2.60;64.20;;;;;;5099003;28;20024;-63
2022/03/14 01:37:07;;;;;;;9.70;7.60;;;2.60;64.30;;;;;;5104552;28;20055;-63
2022/03/14 01:39:33;;;;;;;8.82;7.00;;;2.50;64.30;;;;;;5107520;28;20020;-63
2022/03/14 01:41:59;;;;;;;9.13;7.50;;;2.50;64.40;;;;;;5110569;28;20108;-63
2022/03/14 01:44:26;;;;;;;8.80;7.13;;;2.50;64.30;;;;;;5101302;28;20217;-63
2022/03/14 01:46:53;;;;;;;9.15;7.20;;;2.40;64.50;;;;;;5113635;28;20024;-63
2022/03/14 01:49:19;;;;;;;8.02;6.85;;;2.40;64.40;;;;;;5113467;28;20494;-63
2022/03/14 01:51:45;;;;;;;8.68;6.78;;;2.40;64.70;;;;;;5113840;28;20442;-63
2022/03/14 01:54:11;;;;;;;9.13;7.28;;;2.40;64.80;;;;;;5108733;28;20016;-63
2022/03/14 01:56:39;;;;;;;8.50;6.97;;;2.40;65.00;;;;;;5088301;28;20112;-63
2022/03/14 01:59:06;;;;;;;8.07;7.18;;;2.40;65.10;;;;;;5102917;28;20487;-63
2022/03/14 02:01:32;;;;;;;9.32;7.63;;;2.40;65.10;;;;;;5102860;28;20049;-63
2022/03/14 02:03:59;;;;;;;9.63;7.95;;;2.40;65.10;;;;;;5113037;28;20941;-63
2022/03/14 02:06:27;;;;;;;9.80;7.93;;;2.40;65.10;;;;;;5113030;28;20024;-63
2022/03/14 02:08:53;;;;;;;10.20;8.13;;;2.30;65.20;;;;;;5112793;28;20034;-63
2022/03/14 02:11:20;;;;;;;10.10;8.73;;;2.30;65.30;;;;;;5113155;28;20030;-63
2022/03/14 02:13:46;;;;;;;8.60;7.70;;;2.30;65.30;;;;;;5100238;28;20028;-63
2022/03/14 02:16:11;;;;;;;9.15;7.82;;;2.30;65.20;;;;;;5104715;28;20102;-63
2022/03/14 02:18:37;;;;;;;11.25;8.18;;;2.30;65.20;;;;;;5113172;28;20055;-63
2022/03/14 02:21:04;;;;;;;9.10;7.95;;;2.30;65.30;;;;;;5112821;28;20028;-63
2022/03/14 02:23:30;;;;;;;10.05;8.95;;;2.20;65.20;;;;;;5112712;28;20110;-63
2022/03/14 02:25:55;;;;;;;10.40;8.60;;;2.20;65.30;;;;;;5098759;28;20107;-63
2022/03/14 02:28:23;;;;;;;10.82;8.57;;;2.20;65.40;;;;;;5112839;28;20043;-63
2022/03/14 02:30:50;;;;;;;11.35;8.82;;;2.20;65.30;;;;;;5105659;27;20039;-63
2022/03/14 02:33:16;;;;;;;9.48;8.27;;;2.10;65.40;;;;;;5112674;28;20391;-63
2022/03/14 02:35:42;;;;;;;11.43;8.95;;;2.10;65.40;;;;;;5111930;28;20032;-63
2022/03/14 02:38:15;;;;;;;9.95;8.18;;;2.10;65.30;;;;;;5103655;28;20051;-63
2022/03/14 02:40:45;;;;;;;10.30;8.88;;;2.10;65.40;;;;;;5112455;28;20035;-63
2022/03/14 02:43:15;;;;;;;10.27;7.70;;;2.00;65.30;;;;;;5112663;28;20019;-63
2022/03/14 02:45:47;;;;;;;9.57;8.57;;;2.00;65.30;;;;;;5087278;28;20020;-63
2022/03/14 02:48:13;;;;;;;8.80;7.57;;;2.00;65.30;;;;;;5106069;28;20030;-63
2022/03/14 02:50:42;;;;;;;9.82;7.97;;;2.00;65.30;;;;;;5103371;28;20015;-63
2022/03/14 02:53:13;;;;;;;9.15;7.88;;;2.00;65.20;;;;;;5112296;28;20033;-63
2022/03/14 02:55:40;;;;;;;10.37;8.83;;;2.00;65.10;;;;;;5112376;28;20019;-63
2022/03/14 02:58:06;;;;;;;8.82;7.60;;;2.00;65.10;;;;;;5112198;28;20438;-63
2022/03/14 03:00:35;;;;;;;10.18;8.52;;;2.00;65.10;;;;;;5102401;28;20090;-62
2022/03/14 03:03:02;;;;;;;9.23;8.13;;;2.00;65.00;;;;;;5112248;28;20030;-63
2022/03/14 03:05:31;;;;;;;9.95;8.25;;;2.00;64.90;;;;;;5098062;28;20062;-63
2022/03/14 03:08:00;;;;;;;11.35;8.77;;;2.00;64.80;;;;;;5112208;28;20099;-63
2022/03/14 03:10:28;;;;;;;9.70;8.27;;;2.10;64.80;;;;;;5112206;28;20519;-63
2022/03/14 03:12:54;;;;;;;10.27;8.38;;;2.10;64.80;;;;;;5103682;28;20093;-63
2022/03/14 03:15:20;;;;;;;9.80;8.43;;;2.10;64.70;;;;;;5086209;28;20032;-63
2022/03/14 03:17:45;;;;;;;11.35;9.02;;;2.10;64.60;;;;;;5110584;28;20032;-63
2022/03/14 03:20:12;;;;;;;10.95;8.95;;;2.10;64.60;;;;;;5114505;28;20031;-63
2022/03/14 03:22:39;;;;;;;10.25;7.95;;;2.10;64.50;;;;;;5093041;28;20027;-62
2022/03/14 03:25:08;;;;;;;10.15;8.18;;;2.20;64.40;;;;;;5103752;28;20015;-63
2022/03/14 03:27:34;;;;;;;12.63;9.00;;;2.20;64.30;;;;;;5116456;28;20028;-63
2022/03/14 03:30:01;;;;;;;10.55;9.13;;;2.20;64.30;;;;;;5116270;28;20473;-62
2022/03/14 03:32:27;;;;;;;11.73;8.88;;;2.20;64.20;;;;;;5116141;28;20027;-62
2022/03/14 03:34:53;;;;;;;10.23;8.43;;;2.30;64.30;;;;;;5113352;28;20047;-62
2022/03/14 03:37:19;;;;;;;9.88;8.43;;;2.30;64.10;;;;;;5095948;28;20451;-62
2022/03/14 03:39:44;;;;;;;10.70;8.43;;;2.30;64.10;;;;;;5096670;28;20031;-63
2022/03/14 03:42:10;;;;;;;10.50;7.65;;;2.30;63.90;;;;;;5115899;28;20422;-63
2022/03/14 03:44:36;;;;;;;10.77;8.00;;;2.30;63.80;;;;;;5089161;28;20142;-63
2022/03/14 03:47:03;;;;;;;9.65;8.13;;;2.40;63.80;;;;;;5114544;28;20024;-63
2022/03/14 03:49:29;;;;;;;9.60;7.55;;;2.40;63.70;;;;;;5115910;28;20352;-63
2022/03/14 03:51:55;;;;;;;9.23;7.50;;;2.40;63.60;;;;;;5115908;28;20483;-63
2022/03/14 03:54:21;;;;;;;9.80;7.60;;;2.40;63.60;;;;;;5110131;28;20058;-63
2022/03/14 03:56:48;;;;;;;9.10;7.45;;;2.40;63.50;;;;;;5088386;28;20032;-62
2022/03/14 03:59:14;;;;;;;9.38;8.00;;;2.50;63.50;;;;;;5112023;28;20352;-63
2022/03/14 04:01:41;;;;;;;8.82;7.80;;;2.50;63.40;;;;;;5113133;28;20020;-63
2022/03/14 04:04:07;;;;;;;9.82;8.15;;;2.50;63.40;;;;;;5115843;28;20451;-63
2022/03/14 04:06:34;;;;;;;9.15;7.93;;;2.50;63.50;;;;;;5115481;28;20019;-63
2022/03/14 04:09:01;;;;;;;10.05;8.35;;;2.50;63.40;;;;;;5115577;28;20020;-62
2022/03/14 04:11:28;;;;;;;11.38;8.85;;;2.50;63.20;;;;;;5115530;28;20047;-63
2022/03/14 04:13:57;;;;;;;13.38;9.05;;;2.60;63.60;;;;;;5079838;28;20032;-63
2022/03/14 04:16:25;;;;;;;9.32;7.90;;;2.60;63.60;;;;;;5102121;28;20038;-63
2022/03/14 04:18:51;;;;;;;10.30;8.02;;;2.60;63.70;;;;;;5115401;28;20028;-63
2022/03/14 04:21:17;;;;;;;10.27;7.95;;;2.60;63.30;;;;;;5115380;28;20035;-63
2022/03/14 04:23:43;;;;;;;9.27;8.27;;;2.60;63.30;;;;;;5089201;28;20020;-63
2022/03/14 04:26:09;;;;;;;9.50;7.60;;;2.60;63.50;;;;;;5115135;28;20506;-63
2022/03/14 04:28:36;;;;;;;10.50;8.27;;;2.60;63.60;;;;;;5114981;28;20524;-63
2022/03/14 04:31:05;;;;;;;9.65;7.93;;;2.60;63.70;;;;;;5101888;28;20015;-63
2022/03/14 04:33:32;;;;;;;9.75;8.20;;;2.60;63.80;;;;;;5108116;28;20020;-63
2022/03/14 04:35:58;;;;;;;10.65;8.43;;;2.60;63.90;;;;;;5106813;28;20039;-63
2022/03/14 04:38:28;;;;;;;10.05;8.60;;;2.60;63.90;;;;;;5114892;28;20081;-63
2022/03/14 04:40:54;;;;;;;10.50;8.88;;;2.60;63.90;;;;;;5114902;28;20023;-63
2022/03/14 04:43:21;;;;;;;11.30;9.73;;;2.60;63.80;;;;;;5114758;28;20022;-63
2022/03/14 04:45:48;;;;;;;10.88;9.05;;;2.60;63.90;;;;;;5113739;28;20427;-63
2022/03/14 04:48:15;;;;;;;10.00;8.20;;;2.60;64.00;;;;;;5112035;28;20660;-63
2022/03/14 04:50:42;;;;;;;9.57;8.35;;;2.60;64.00;;;;;;5114636;28;20098;-63
2022/03/14 04:53:08;;;;;;;9.65;8.50;;;2.70;64.20;;;;;;5088518;27;20536;-63
2022/03/14 04:55:35;;;;;;;11.27;8.65;;;2.70;64.30;;;;;;5113364;28;20491;-63
2022/03/14 04:58:05;;;;;;;11.27;9.15;;;2.70;64.20;;;;;;5109906;28;20024;-63
2022/03/14 05:00:32;;;;;;;9.43;8.30;;;2.70;64.20;;;;;;5102407;28;20035;-65
2022/03/14 05:03:02;;;;;;;8.55;5.63;;;2.70;64.10;;;;;;5110248;28;20020;-63
2022/03/14 05:05:29;;;;;;;13.45;11.38;;;2.60;64.20;;;;;;5113285;28;20027;-63
2022/03/14 05:07:55;;;;;;;12.25;9.60;;;2.70;64.40;;;;;;5114530;28;20023;-64
2022/03/14 05:10:20;;;;;;;11.55;10.25;;;2.70;64.30;;;;;;5114247;27;20019;-62
2022/03/14 05:12:46;;;;;;;10.98;8.75;;;2.70;64.20;;;;;;5098017;28;20491;-62
2022/03/14 05:15:16;;;;;;;9.80;8.48;;;2.70;64.20;;;;;;5105065;28;20024;-62
2022/03/14 05:17:42;;;;;;;11.20;8.52;;;2.70;63.90;;;;;;5114365;28;20382;-62
2022/03/14 05:20:09;;;;;;;10.77;5.93;;;2.80;64.00;;;;;;5109976;28;20102;-62
2022/03/14 05:22:44;;;;;;;9.95;8.55;;;2.70;64.20;;;;;;5105716;28;20490;-62
2022/03/14 05:25:11;;;;;;;11.38;8.52;;;2.80;64.40;;;;;;5086557;28;20477;-62
2022/03/14 05:27:38;;;;;;;11.00;8.27;;;2.80;64.40;;;;;;5114011;28;20023;-62
2022/03/14 05:30:05;;;;;;;9.55;8.10;;;2.80;64.20;;;;;;5114284;28;20035;-62
2022/03/14 05:32:30;;;;;;;8.95;7.55;;;2.90;64.20;;;;;;5112464;28;20531;-62
2022/03/14 05:34:56;;;;;;;10.85;8.43;;;2.90;63.80;;;;;;5113745;28;20098;-62
2022/03/14 05:37:22;;;;;;;12.15;9.05;;;2.90;63.40;;;;;;5103211;27;20447;-62
2022/03/14 05:39:49;;;;;;;9.52;8.10;;;2.90;63.30;;;;;;5099504;28;20024;-62
2022/03/14 05:42:15;;;;;;;9.40;8.40;;;3.00;63.20;;;;;;5113068;28;20015;-62
2022/03/14 05:44:44;;;;;;;10.27;5.60;;;3.00;62.80;;;;;;5113579;28;20016;-62
2022/03/14 05:47:10;;;;;;;8.95;7.60;;;2.90;62.80;;;;;;5113850;28;20099;-62
2022/03/14 05:49:36;;;;;;;9.30;7.97;;;2.90;62.80;;;;;;5113499;28;20027;-62
2022/03/14 05:52:02;;;;;;;9.18;7.88;;;3.00;62.70;;;;;;5107296;28;20031;-62
2022/03/14 05:54:28;;;;;;;9.43;7.80;;;3.00;62.40;;;;;;5097747;28;20350;-62
2022/03/14 05:56:54;;;;;;;11.63;8.43;;;3.00;62.40;;;;;;5105502;28;20139;-62
2022/03/14 05:59:20;;;;;;;9.75;8.45;;;3.00;62.30;;;;;;5109750;28;20016;-62
2022/03/14 06:01:47;;;;;;;11.57;8.20;;;3.00;62.10;;;;;;5104864;28;20079;-62
2022/03/14 06:04:13;;;;;;;9.40;7.72;;;3.10;62.10;;;;;;5106413;28;20076;-62
2022/03/14 06:06:39;;;;;;;11.43;7.07;;;3.10;62.20;;;;;;5106753;28;20020;-62
2022/03/14 06:09:05;;;;;;;12.57;9.38;;;3.00;62.30;;;;;;5112981;28;20019;-62
2022/03/14 06:11:31;;;;;;;12.15;9.35;;;3.10;62.60;;;;;;5097658;28;20044;-62
2022/03/14 06:13:56;;;;;;;9.27;5.97;;;3.10;62.10;;;;;;5104548;28;20398;-63
2022/03/14 06:16:22;;;;;;;10.13;5.80;;;3.10;62.20;;;;;;5113421;28;20032;-63
2022/03/14 06:18:48;;;;;;;7.65;5.45;;;3.00;62.40;;;;;;5112884;28;20016;-63
2022/03/14 06:21:14;;;;;;;11.25;9.52;;;3.00;62.70;;;;;;5112916;28;20027;-63
2022/03/14 06:23:40;;;;;;;12.70;9.40;;;3.10;62.70;;;;;;5098537;28;20461;-63
2022/03/14 06:26:06;;;;;;;15.52;9.95;;;3.20;62.40;;;;;;5112833;28;20055;-63
2022/03/14 06:28:31;;;;;;;14.10;10.73;;;3.20;62.00;;;;;;5107985;28;20437;-63
2022/03/14 06:30:57;;;;;;;16.20;10.88;;;3.30;61.80;;;;;;5113066;28;20030;-63
2022/03/14 06:33:23;;;;;;;16.73;11.32;;;3.30;61.80;;;;;;5112494;28;20038;-63
2022/03/14 06:35:50;;;;;;;14.73;7.75;;;3.30;61.70;;;;;;5112954;28;20040;-63
2022/03/14 06:38:15;;;;;;;20.67;13.02;;;3.30;61.70;;;;;;5112415;28;20122;-63
2022/03/14 06:40:41;;;;;;;16.42;12.27;;;3.40;61.70;;;;;;5112402;28;20131;-63
2022/03/14 06:43:08;;;;;;;17.90;12.45;;;3.40;61.30;;;;;;5112338;28;20530;-63
2022/03/14 06:45:34;;;;;;;14.90;11.60;;;3.50;61.10;;;;;;5098130;28;20025;-63
2022/03/14 06:48:01;;;;;;;13.95;11.20;;;3.50;60.90;;;;;;5103817;28;20031;-63
2022/03/14 06:50:27;;;;;;;11.88;7.78;;;3.50;60.80;;;;;;5096565;28;20028;-63
2022/03/14 06:52:53;;;;;;;13.57;10.48;;;3.50;60.90;;;;;;5077070;28;20025;-63
2022/03/14 06:55:19;;;;;;;13.95;11.40;;;3.50;60.90;;;;;;5071293;28;20108;-63
2022/03/14 06:57:44;;;;;;;14.23;11.50;;;3.60;60.90;;;;;;5090038;28;20046;-63
2022/03/14 07:00:11;;;;;;;14.32;11.45;;;3.70;60.70;;;;;;5091074;28;20424;-63
2022/03/14 07:02:40;;;;;;;11.07;7.43;;;3.70;60.50;;;;;;5078345;28;20054;-63
2022/03/14 07:05:06;;;;;;;9.98;6.90;;;3.70;60.50;;;;;;5074129;28;20400;-63
2022/03/14 07:07:32;;;;;;;14.73;10.77;;;3.70;60.90;;;;;;5100786;28;20487;-63
2022/03/14 07:09:58;;;;;;;9.52;7.03;;;3.70;60.70;;;;;;5073052;28;20028;-63
2022/03/14 07:12:24;;;;;;;11.68;6.28;;;3.80;60.50;;;;;;5086937;28;20027;-64
2022/03/14 07:14:49;;;;;;;14.48;10.65;;;3.80;60.80;;;;;;5085470;28;20035;-62
2022/03/14 07:17:15;;;;;;;10.13;6.85;;;3.90;60.50;;;;;;5083000;28;20035;-61
2022/03/14 07:19:45;;;;;;;15.05;11.57;;;3.90;60.40;;;;;;5075710;28;20032;-62
2022/03/14 07:22:17;;;;;;;10.65;6.65;;;3.90;60.40;;;;;;5075416;28;20503;-64
2022/03/14 07:24:44;;;;;;;10.23;6.53;;;3.90;60.30;;;;;;5086320;28;20029;-64
2022/03/14 07:27:11;;;;;;;11.75;9.63;;;4.00;60.40;;;;;;5075644;28;20020;-64
2022/03/14 07:29:37;;;;;;;12.25;7.60;;;4.00;60.10;;;;;;5081077;28;20487;-64
2022/03/14 07:32:03;;;;;;;12.00;9.90;;;4.10;60.10;;;;;;5081478;28;20035;-63
2022/03/14 07:34:30;;;;;;;15.70;7.95;;;4.10;59.90;;;;;;5078573;28;20468;-63
2022/03/14 07:36:57;;;;;;;13.07;10.23;;;4.10;59.70;;;;;;5079298;28;20032;-63
2022/03/14 07:39:23;;;;;;;13.48;11.23;;;4.20;59.60;;;;;;5076886;28;20456;-66
2022/03/14 07:41:49;;;;;;;9.75;6.63;;;4.30;59.30;;;;;;5076618;28;20063;-66
2022/03/14 07:44:14;;;;;;;14.95;11.75;;;4.30;59.30;;;;;;5081486;28;20039;-66
2022/03/14 07:46:40;;;;;;;14.95;11.85;;;4.30;59.30;;;;;;5073646;28;20020;-65
2022/03/14 07:49:08;;;;;;;13.82;8.05;;;4.40;59.00;;;;;;5075062;28;20028;-65
2022/03/14 07:51:33;;;;;;;16.33;8.45;;;4.40;59.10;;;;;;5079274;28;20032;-64
2022/03/14 07:53:59;;;;;;;13.82;11.15;;;4.40;59.40;;;;;;5077754;28;20034;-64
2022/03/14 07:56:25;;;;;;;14.10;10.57;;;4.40;59.20;;;;;;5074489;28;20028;-64
2022/03/14 07:58:51;;;;;;;13.70;11.63;;;4.50;58.70;;;;;;5074289;28;20396;-65
2022/03/14 08:01:19;;;;;;;11.40;7.45;;;4.60;58.60;;;;;;5078118;28;20289;-63
2022/03/14 08:03:45;;;;;;;13.25;11.10;;;4.60;58.70;;;;;;5078915;28;20051;-64
2022/03/14 08:06:17;;;;;;;12.60;7.15;;;4.60;58.70;;;;;;5076869;28;20447;-64
2022/03/14 08:08:43;;;;;;;;;;;4.70;58.70;;;;;;5077767;28;20020;-64
2022/03/14 08:11:09;;;;;;;11.85;9.40;;;4.60;58.40;;;;;;5081048;28;19923;-65
2022/03/14 08:13:34;;;;;;;9.82;8.80;;;4.70;58.50;;;;;;5082017;28;20038;-65
2022/03/14 08:16:00;;;;;;;11.57;9.70;;;4.80;58.20;;;;;;5081192;28;20020;-65
2022/03/14 08:18:26;;;;;;;10.95;8.85;;;4.80;57.60;;;;;;5078835;28;20039;-66
2022/03/14 08:20:57;;;;;;;11.90;7.00;;;4.90;57.40;;;;;;5077119;28;20786;-65
2022/03/14 08:23:23;;;;;;;9.73;6.90;;;4.90;57.60;;;;;;5080777;28;20024;-65
2022/03/14 08:25:49;;;;;;;12.13;9.55;;;4.80;58.10;;;;;;5075322;28;20016;-66
2022/03/14 08:28:15;;;;;;;11.05;9.13;;;4.90;57.80;;;;;;5084127;28;20541;-66
2022/03/14 08:30:41;;;;;;;12.80;10.60;;;4.90;57.30;;;;;;5077975;28;20036;-65
2022/03/14 08:33:08;;;;;;;11.75;10.10;;;5.00;57.50;;;;;;5076074;28;20148;-66
2022/03/14 08:35:34;;;;;;;12.00;7.20;;;5.00;57.50;;;;;;5074811;28;20085;-66
2022/03/14 08:38:00;;;;;;;10.52;9.43;;;5.00;57.60;;;;;;5076887;28;20028;-66
2022/03/14 08:40:27;;;;;;;12.45;7.50;;;5.00;57.70;;;;;;5074930;28;20434;-67
2022/03/14 08:42:55;;;;;;;12.13;9.95;;;5.00;57.70;;;;;;5079364;28;20020;-66
2022/03/14 08:45:23;;;;;;;12.73;10.07;;;5.10;57.80;;;;;;5079116;28;20028;-66
2022/03/14 08:47:49;;;;;;;13.95;11.02;;;5.10;57.80;;;;;;5079063;28;20029;-66
2022/03/14 08:50:16;;;;;;;13.80;10.52;;;5.30;57.80;;;;;;5078759;28;20039;-65
2022/03/14 08:52:41;;;;;;;11.70;10.13;;;5.30;57.80;;;;;;5080966;28;20024;-65
2022/03/14 08:55:07;;;;;;;8.60;5.90;;;5.40;58.10;;;;;;5082015;28;20085;-65
2022/03/14 08:57:33;;;;;;;10.00;8.07;;;5.30;58.10;;;;;;5076436;28;20023;-66
2022/03/14 08:59:59;;;;;;;9.95;6.35;;;5.40;58.10;;;;;;5079483;28;20545;-65
2022/03/14 09:02:26;;;;;;;10.25;8.32;;;5.40;57.90;;;;;;5080697;28;20032;-66
2022/03/14 09:04:52;;;;;;;10.25;8.48;;;5.40;57.90;;;;;;5085039;28;20431;-65
2022/03/14 09:07:25;;;;;;;10.18;8.15;;;5.40;57.50;;;;;;5080226;28;20054;-66
2022/03/14 09:09:51;;;;;;;9.98;8.18;;;5.40;57.20;;;;;;5080987;28;20467;-65
2022/03/14 09:12:19;;;;;;;10.40;8.50;;;5.30;57.00;;;;;;5089746;28;20115;-66
2022/03/14 09:14:46;;;;;;;8.75;5.75;;;5.30;56.80;;;;;;5079216;28;20035;-66
2022/03/14 09:17:12;;;;;;;10.82;8.60;;;5.20;57.20;;;;;;5077136;28;20028;-66
2022/03/14 09:19:38;;;;;;;7.55;5.60;;;5.20;57.70;;;;;;5072123;28;20388;-65
2022/03/14 09:22:04;;;;;;;10.18;7.93;;;5.10;57.70;;;;;;5082810;28;20024;-66
2022/03/14 09:24:30;;;;;;;10.10;8.35;;;5.20;57.70;;;;;;5083598;28;20030;-66
2022/03/14 09:26:59;;;;;;;11.00;9.52;;;5.20;57.40;;;;;;5082148;28;20470;-66
2022/03/14 09:29:26;;;;;;;10.35;9.15;;;5.30;57.40;;;;;;5109520;27;20024;-65
2022/03/14 09:31:52;;;;;;;11.10;9.73;;;5.30;57.30;;;;;;5077970;28;20032;-66
2022/03/14 09:34:18;;;;;;;10.00;6.35;;;5.40;57.40;;;;;;5072061;28;20039;-66
2022/03/14 09:36:45;;;;;;;10.27;8.55;;;5.30;57.40;;;;;;5075406;28;20093;-65
2022/03/14 09:39:13;;;;;;;9.75;5.60;;;5.30;57.40;;;;;;5076271;28;20541;-65
2022/03/14 09:41:41;;;;;;;8.98;7.38;;;5.30;57.50;;;;;;5076199;28;20036;-65
2022/03/14 09:44:09;;;;;;;8.13;7.10;;;5.40;57.80;;;;;;5079744;28;20081;-65
2022/03/14 09:46:39;;;;;;;8.90;7.10;;;5.50;57.20;;;;;;5075826;28;20048;-65
2022/03/14 09:49:12;;;;;;;9.20;6.07;;;5.60;56.90;;;;;;5074907;28;20065;-65
2022/03/14 09:51:39;;;;;;;8.23;6.50;;;5.60;57.20;;;;;;5084294;28;20032;-65
2022/03/14 09:54:07;;;;;;;7.93;5.03;;;5.70;57.40;;;;;;5081658;28;20035;-65
2022/03/14 09:56:33;;;;;;;8.63;7.03;;;5.70;57.10;;;;;;5083348;28;20508;-66
2022/03/14 09:59:03;;;;;;;9.15;8.00;;;5.80;56.90;;;;;;5076903;28;20466;-65
2022/03/14 10:01:29;;;;;;;8.15;7.35;;;5.90;56.20;;;;;;5069284;28;21858;-65
2022/03/14 10:03:56;;;;;;;8.27;5.40;;;6.00;55.90;;;;;;5071293;28;20025;-66
2022/03/14 10:06:22;;;;;;;8.32;6.45;;;5.90;56.10;;;;;;5068500;28;20024;-66
2022/03/14 10:08:48;;;;;;;8.35;7.00;;;5.90;55.70;;;;;;5078854;28;20025;-65
2022/03/14 10:11:14;;;;;;;9.30;7.30;;;6.00;55.50;;;;;;5077238;28;20035;-65
2022/03/14 10:13:40;;;;;;;9.15;7.22;;;6.00;55.30;;;;;;5076113;28;20041;-65
2022/03/14 10:16:06;;;;;;;8.85;7.93;;;6.00;55.20;;;;;;5082216;28;20028;-66
2022/03/14 10:18:50;;;;;;;10.23;8.50;;;6.10;55.40;;;;;;5077908;28;20039;-65
2022/03/14 10:21:32;;;;;;;9.68;8.68;;;6.20;55.20;;;;;;5077325;28;20040;-66
2022/03/14 10:24:21;;;;;;;7.82;5.93;;;6.20;55.30;;;;;;5073523;28;20055;-66
2022/03/14 10:26:47;;;;;;;8.20;7.32;;;6.10;55.70;;;;;;5078131;28;20028;-65
2022/03/14 10:29:13;;;;;;;9.52;7.55;;;6.10;55.60;;;;;;5075961;28;20088;-66
2022/03/14 10:32:01;;;;;;;8.57;7.65;;;6.20;55.00;;;;;;5076786;28;20021;-66
2022/03/14 10:34:27;;;;;;;10.68;8.52;;;6.20;54.80;;;;;;5073074;28;20036;-66
2022/03/14 10:36:57;;;;;;;9.98;6.00;;;6.20;54.50;;;;;;5075842;28;20515;-65
2022/03/14 10:39:27;;;;;;;10.40;9.27;;;6.20;55.10;;;;;;5077087;28;20047;-66
2022/03/14 10:42:03;;;;;;;10.77;9.50;;;6.20;55.60;;;;;;5078294;28;20036;-65
2022/03/14 10:44:30;;;;;;;10.27;9.20;;;6.30;55.30;;;;;;5073026;28;20038;-66
2022/03/14 10:47:01;;;;;;;8.52;6.10;;;6.30;55.30;;;;;;5079429;28;20121;-66
2022/03/14 10:49:32;;;;;;;11.23;8.48;;;6.30;55.50;;;;;;5076103;28;20020;-67
2022/03/14 10:52:09;;;;;;;11.43;6.38;;;6.30;55.80;;;;;;5072295;28;20456;-66
2022/03/14 10:54:39;;;;;;;9.50;8.30;;;6.20;55.80;;;;;;5078877;28;20710;-67
2022/03/14 10:57:18;;;;;;;12.05;9.90;;;6.30;55.90;;;;;;5074015;28;20369;-65
2022/03/14 10:59:49;;;;;;;12.75;9.38;;;6.30;55.60;;;;;;5072751;28;20406;-66
2022/03/14 11:02:20;;;;;;;14.20;7.00;;;6.40;55.60;;;;;;5074831;28;20017;-65
2022/03/14 11:04:51;;;;;;;9.07;5.60;;;6.30;55.70;;;;;;5078442;28;20495;-65
2022/03/14 11:07:23;;;;;;;8.20;5.75;;;6.20;56.00;;;;;;5072947;28;20056;-66
2022/03/14 11:09:51;;;;;;;9.90;8.73;;;6.20;56.10;;;;;;5077683;28;20024;-64
2022/03/14 11:12:24;;;;;;;8.40;5.93;;;6.20;56.20;;;;;;5078866;28;20028;-66
2022/03/14 11:15:05;;;;;;;9.88;8.00;;;6.20;56.20;;;;;;5085124;28;20020;-66
2022/03/14 11:17:33;;;;;;;10.73;9.63;;;6.20;56.00;;;;;;5084015;28;20030;-65
2022/03/14 11:20:00;;;;;;;11.13;9.50;;;6.20;55.80;;;;;;5084326;28;20036;-66
2022/03/14 11:22:28;;;;;;;11.00;9.10;;;6.20;55.60;;;;;;5077980;28;20028;-65
2022/03/14 11:24:56;;;;;;;11.90;10.00;;;6.10;55.80;;;;;;5077330;28;20039;-66
2022/03/14 11:27:24;;;;;;;15.90;9.73;;;6.10;55.90;;;;;;5076989;28;20110;-66
2022/03/14 11:29:52;;;;;;;12.60;10.73;;;6.00;56.00;;;;;;5083437;28;20024;-67
2022/03/14 11:32:19;;;;;;;9.98;6.85;;;6.00;56.40;;;;;;5078777;28;20028;-64
2022/03/14 11:34:47;;;;;;;10.52;8.85;;;5.90;56.60;;;;;;5070892;28;20035;-66
2022/03/14 11:37:14;;;;;;;11.02;9.30;;;6.00;56.80;;;;;;5071840;28;20036;-65
2022/03/14 11:39:40;;;;;;;10.50;9.32;;;6.00;56.60;;;;;;5074953;28;20024;-65
2022/03/14 11:42:06;;;;;;;11.68;9.80;;;6.10;56.60;;;;;;5085909;28;20020;-64
2022/03/14 11:44:34;;;;;;;10.02;6.53;;;6.20;56.40;;;;;;5080646;28;20020;-64
2022/03/14 11:47:01;;;;;;;10.52;8.18;;;6.10;56.60;;;;;;5081847;28;20700;-64
2022/03/14 11:49:28;;;;;;;8.73;7.80;;;6.20;56.60;;;;;;5084510;28;20044;-64
2022/03/14 11:52:18;;;;;;;10.50;7.40;;;6.20;56.10;;;;;;5088220;28;20389;-64
2022/03/14 11:54:59;;;;;;;9.40;7.53;;;6.30;56.00;;;;;;5080066;28;20028;-64
2022/03/14 11:57:41;;;;;;;10.15;8.40;;;6.30;55.70;;;;;;5083137;28;20032;-63
2022/03/14 12:00:21;;;;;;;8.60;6.10;;;6.30;55.70;;;;;;5081590;28;20074;-64
2022/03/14 12:02:55;;;;;;;11.77;5.95;;;6.30;56.20;;;;;;5082778;28;20471;-63
2022/03/14 12:05:30;;;;;;;10.05;7.50;;;6.20;56.70;;;;;;5082293;28;20055;-62
2022/03/14 12:07:56;;;;;;;8.73;7.82;;;6.20;56.60;;;;;;5077964;28;20496;-64
2022/03/14 12:10:32;;;;;;;9.95;8.27;;;6.20;56.30;;;;;;5075972;28;20688;-63
2022/03/14 12:12:58;;;;;;;10.05;6.10;;;6.20;56.30;;;;;;5081747;28;20042;-63
2022/03/14 12:15:39;;;;;;;10.15;8.35;;;6.10;56.40;;;;;;5081755;28;20116;-63
2022/03/14 12:18:28;;;;;;;9.65;5.82;;;6.10;56.70;;;;;;5079031;28;20039;-63
2022/03/14 12:21:03;;;;;;;11.30;8.02;;;6.00;56.90;;;;;;5082233;28;20024;-64
2022/03/14 12:23:33;;;;;;;9.00;8.00;;;6.00;56.70;;;;;;5079785;28;20595;-64
2022/03/14 12:26:01;;;;;;;10.68;8.45;;;6.00;56.70;;;;;;5081680;28;20025;-66
2022/03/14 12:28:33;;;;;;;8.18;5.88;;;6.00;57.10;;;;;;5081889;28;20059;-63
2022/03/14 12:31:10;;;;;;;;;;;5.90;56.80;;;;;;5077563;28;20127;-64
2022/03/14 12:33:38;;;;;;;8.90;7.55;;;5.80;56.80;;;;;;5082794;28;19919;-63
2022/03/14 12:36:22;;;;;;;8.48;5.35;;;5.90;57.30;;;;;;5078621;28;20123;-63
2022/03/14 12:39:06;;;;;;;8.55;7.70;;;5.80;57.30;;;;;;5081176;28;20125;-64
2022/03/14 12:41:33;;;;;;;9.23;7.90;;;5.90;57.60;;;;;;5091345;28;20612;-64
2022/03/14 12:43:59;;;;;;;10.93;8.27;;;6.00;57.60;;;;;;5092269;28;20050;-63
2022/03/14 12:46:26;;;;;;;11.60;7.18;;;6.10;57.30;;;;;;5087958;28;20027;-63
2022/03/14 12:48:54;;;;;;;13.02;11.15;;;6.10;57.10;;;;;;5076704;28;20028;-65
2022/03/14 12:51:29;;;;;;;11.27;9.32;;;6.20;57.20;;;;;;5078627;28;20032;-63
2022/03/14 12:53:59;;;;;;;9.95;8.55;;;6.30;57.20;;;;;;5080710;28;20101;-64